LFPM 172130Z AUTO 12004KT CAVOK 17/17 Q1012

Les avions qui composent notre flotte

Avion Robin DR400-180

Idéal pour les voyages

F-GDED


F-GDED Planche